Palmer, AK

9:14 PM AKDT on September 30, 2014 (GMT -0800)
GPRA | Change Station
CLOSE
Current Station
Personal Weather Station
Location: Palmer, AK
Elevation: 784 ft
Nearby Weather Stations

Elev 784 ft 61.70 °N, 149.30 °W | Updated 32 days ago

Clear
Clear
32 °F
Feels Like 32 °F
N
4
Wind Variable Wind from ENE
Gusts 4 mph

Today
High -- | Low -- °F
--% Chance of Precip.
Yesterday
High -- | Low -- °F
Precip. -- in
8:02 AM 7:30 PM
Waxing Crescent, 43% visible
Pressure 30.23 in
Visibility 10.0 miles
Clouds Clear
Dew Point 27 °F
Humidity 79%
Rainfall 0.00 in
Snow Depth 0 in , 20 in , 1 in
UV 0 out of 12
Pollen Not available.
Air Quality Not available.
Flu Activity Not available.
METAR PAWS 010456Z AUTO 00000KT 10SM CLR 01/M07 A3023 RMK AO1

More Conditions Fewer Conditions

Pressure 30.23 in
Visibility 10.0 miles
Clouds Clear
Dew Point 27 °F
Humidity 79%
Rainfall 0.00 in
Snow Depth 0 in , 20 in , 1 in
UV 0 out of 12
Pollen Not available.
Air Quality Not available.
Flu Activity Not available.
METAR PAWS 010456Z AUTO 00000KT 10SM CLR 01/M07 A3023 RMK AO1

More Conditions Fewer Conditions

10-Day Weather Forecast

Almanac

Astronomy

Sep. 30, 2014 Rise Set
Actual Time 8:02 AM AKDT 7:30 PM AKDT
Civil Twilight 7:18 AM AKDT 8:14 PM AKDT
Nautical Twilight 6:26 AM AKDT 9:05 PM AKDT
Astronomical Twilight 5:31 AM AKDT 10:00 PM AKDT
Moon 3:42 PM AKDT (9/30) 10:49 PM AKDT (9/30)
Length of Visible Light 12h 56m
Length of Day
11h 28m
Tomorrow will be 5m 47s shorter.
Waxing Crescent, 43% of the Moon is Illuminated
Oct 1
Waxing Crescent
Oct 1
First Quarter
Oct 8
Full
Oct 15
Last Quarter
Oct 23
New

Yesterday's Extremes

State Highs State Lows

Community

WunderPhotos

Upload Photos

1,757,851 photos uploaded!

Nearby

Snow Depth

Station Depth Elevation
Granite Creek 0 in 1240 ft
Grandview 20 in 1100 ft
Mcneil Canyon 0 in 1320 ft
Point Mackenzie 1 in 200 ft
Long Lake 1 in 820 ft

Earthquake Activity

City Distance Mag. Time & Date
No recent earthquake activity has been reported nearby.
Minimum magnitude displayed is 2.5.

Coastal Water Temperatures

Place Temperature
No Stations Reporting

Nearby Weather Stations